createdAt,value
2019-01-13T00:04:47.690Z,39.34
2019-01-13T00:10:42.658Z,36.84
2019-01-13T00:16:37.622Z,38.98
2019-01-13T00:22:32.635Z,43.3
2019-01-13T00:28:27.653Z,43.7
2019-01-13T00:34:22.643Z,44.93
2019-01-13T00:40:17.654Z,47.51
2019-01-13T00:46:12.650Z,57.93
2019-01-13T00:52:07.652Z,43.39
2019-01-13T00:58:02.674Z,46.2
2019-01-13T01:03:57.697Z,37.36
2019-01-13T01:09:52.662Z,31.22
2019-01-13T01:15:47.680Z,43.13
2019-01-13T01:21:42.725Z,39.61
2019-01-13T01:27:37.700Z,39.21
2019-01-13T01:33:32.696Z,44.01
2019-01-13T01:39:27.694Z,38.41
2019-01-13T01:45:22.689Z,40.33
2019-01-13T01:51:17.679Z,45.9
2019-01-13T01:57:12.715Z,40.06
2019-01-13T02:03:07.729Z,37.3
2019-01-13T02:09:02.719Z,35.21
2019-01-13T02:14:57.692Z,34.4
2019-01-13T02:20:52.699Z,33.97
2019-01-13T02:26:47.704Z,29.71
2019-01-13T02:32:42.723Z,26.88
2019-01-13T02:38:37.702Z,31.04
2019-01-13T02:44:32.706Z,32.73
2019-01-13T02:50:27.749Z,30.17
2019-01-13T02:56:22.710Z,34.39
2019-01-13T03:02:17.697Z,31.37
2019-01-13T03:08:12.774Z,29.23
2019-01-13T03:14:07.737Z,28.83
2019-01-13T03:20:02.749Z,44.36
2019-01-13T03:25:57.721Z,33.08
2019-01-13T03:31:52.740Z,29.6
2019-01-13T03:37:47.762Z,27.27
2019-01-13T03:43:42.773Z,30.91
2019-01-13T03:49:37.778Z,32.51
2019-01-13T03:55:32.752Z,35.11
2019-01-13T04:01:27.787Z,38.58
2019-01-13T04:07:22.745Z,39.98
2019-01-13T04:13:17.791Z,40.42
2019-01-13T04:19:12.750Z,43.63
2019-01-13T04:25:07.760Z,39.06
2019-01-13T04:31:02.750Z,35.97
2019-01-13T04:36:57.759Z,35.55
2019-01-13T04:42:52.774Z,33.32
2019-01-13T04:48:47.789Z,33.3
2019-01-13T04:54:42.794Z,26.68
2019-01-13T05:00:37.768Z,24.07
2019-01-13T05:06:32.800Z,24.29
2019-01-13T05:12:27.909Z,25.22
2019-01-13T05:18:22.807Z,31.95
2019-01-13T05:24:17.782Z,25.79
2019-01-13T05:30:12.793Z,26.84
2019-01-13T05:36:07.803Z,25.9
2019-01-13T05:42:02.798Z,26.96
2019-01-13T05:47:57.813Z,27.64
2019-01-13T05:53:52.831Z,28.66
2019-01-13T05:59:47.838Z,28.4
2019-01-13T06:05:42.803Z,25.94
2019-01-13T06:11:37.827Z,29.78
2019-01-13T06:17:32.832Z,35.63
2019-01-13T06:23:27.813Z,42.41
2019-01-13T06:29:22.846Z,45.93
2019-01-13T06:35:17.881Z,42.13
2019-01-13T06:41:12.816Z,41.36
2019-01-13T06:47:07.837Z,35.25
2019-01-13T06:53:02.821Z,39.3
2019-01-13T06:58:57.829Z,38.9
2019-01-13T07:04:52.821Z,43.1
2019-01-13T07:10:47.852Z,41.57
2019-01-13T07:16:42.846Z,38.59
2019-01-13T07:22:37.843Z,39.99
2019-01-13T07:28:32.839Z,41.38
2019-01-13T07:34:27.831Z,42.81
2019-01-13T07:40:22.845Z,33.1
2019-01-13T07:46:17.891Z,28.83
2019-01-13T07:52:12.863Z,23.31
2019-01-13T07:58:07.911Z,24.17
2019-01-13T08:04:02.867Z,21.11
2019-01-13T08:09:57.872Z,20.38
2019-01-13T08:15:52.907Z,28.36
2019-01-13T08:21:47.925Z,33.35
2019-01-13T08:27:42.915Z,37.52
2019-01-13T08:33:37.867Z,44.45
2019-01-13T08:39:32.930Z,51.31
2019-01-13T08:45:27.919Z,45.7
2019-01-13T08:51:22.876Z,45.23
2019-01-13T08:57:17.929Z,46.5
2019-01-13T09:03:12.896Z,45.28
2019-01-13T09:09:07.915Z,46.53
2019-01-13T09:15:02.934Z,45.45
2019-01-13T09:20:57.909Z,44.67
2019-01-13T09:26:52.916Z,50.42
2019-01-13T09:32:47.917Z,56.16
2019-01-13T09:38:42.997Z,53.79
2019-01-13T09:44:37.916Z,64.43
2019-01-13T09:50:32.920Z,63
2019-01-13T09:56:27.905Z,67.4
2019-01-13T10:02:22.934Z,73.58
2019-01-13T10:08:17.937Z,72.74
2019-01-13T10:14:12.967Z,84.93
2019-01-13T10:20:07.967Z,80.53
2019-01-13T10:26:02.956Z,80.15
2019-01-13T10:31:57.931Z,81.86
2019-01-13T10:37:52.971Z,73.08
2019-01-13T10:43:47.950Z,69.2
2019-01-13T10:49:42.937Z,60.81
2019-01-13T10:55:37.982Z,55.6
2019-01-13T11:01:32.993Z,63.53
2019-01-13T11:07:27.999Z,58.52
2019-01-13T11:13:23.009Z,60.88
2019-01-13T11:19:17.962Z,61.37
2019-01-13T11:25:12.968Z,60.65
2019-01-13T11:31:07.954Z,53.36
2019-01-13T11:37:02.972Z,44.92
2019-01-13T11:42:57.962Z,42.43
2019-01-13T11:48:52.977Z,32.17
2019-01-13T11:54:47.996Z,38.58
2019-01-13T12:00:43.000Z,36.69
2019-01-13T12:06:37.997Z,41.82
2019-01-13T12:12:32.995Z,52.53
2019-01-13T12:18:28.009Z,56.18
2019-01-13T12:24:22.992Z,50.95
2019-01-13T12:30:18.009Z,42.9
2019-01-13T12:36:13.013Z,44.45
2019-01-13T12:42:08.005Z,33.63
2019-01-13T12:48:03.049Z,31.57
2019-01-13T12:53:58.003Z,34.66
2019-01-13T12:59:53.015Z,69.94
2019-01-13T13:05:48.017Z,38.33
2019-01-13T13:11:43.024Z,45.48
2019-01-13T13:17:38.041Z,47.44
2019-01-13T13:23:33.041Z,21.3
2019-01-13T13:29:28.048Z,60.8
2019-01-13T13:35:23.032Z,26.84
2019-01-13T13:41:18.073Z,47.75
2019-01-13T13:47:13.034Z,33.07
2019-01-13T13:53:08.039Z,31.38
2019-01-13T13:59:03.080Z,33.81
2019-01-13T14:04:58.059Z,33.9
2019-01-13T14:10:53.047Z,32.43
2019-01-13T14:16:48.059Z,34.08
2019-01-13T14:22:43.058Z,41.17
2019-01-13T14:28:38.070Z,40.16
2019-01-13T14:34:33.067Z,38
2019-01-13T14:40:28.060Z,37.39
2019-01-13T14:46:23.077Z,37.8
2019-01-13T14:52:18.104Z,35.77
2019-01-13T14:58:13.072Z,34.98
2019-01-13T15:04:08.070Z,35.61
2019-01-13T15:10:03.086Z,37.04
2019-01-13T15:15:58.092Z,35.77
2019-01-13T15:21:53.120Z,36.25
2019-01-13T15:27:48.106Z,36.85
2019-01-13T15:33:43.087Z,37.24
2019-01-13T15:39:38.145Z,33.44
2019-01-13T15:45:33.145Z,41.52
2019-01-13T15:51:28.113Z,40.3
2019-01-13T15:57:23.125Z,43.66
2019-01-13T16:03:18.105Z,49.53
2019-01-13T16:09:13.161Z,46.39
2019-01-13T16:15:08.142Z,84.48
2019-01-13T16:21:03.113Z,71.29
2019-01-13T16:26:58.113Z,48.42
2019-01-13T16:32:53.108Z,46.11
2019-01-13T16:38:48.134Z,34.24
2019-01-13T16:44:43.141Z,33.43
2019-01-13T16:50:38.150Z,33.17
2019-01-13T16:56:33.136Z,30.03
2019-01-13T17:02:33.023Z,39.35
2019-01-13T17:08:23.136Z,41.31
2019-01-13T17:14:18.159Z,39.25
2019-01-13T17:20:13.177Z,42.51
2019-01-13T17:26:08.186Z,46.02
2019-01-13T17:32:03.163Z,37.59
2019-01-13T17:37:58.188Z,34.17
2019-01-13T17:43:53.171Z,25.14
2019-01-13T17:49:48.204Z,27.66
2019-01-13T17:55:43.149Z,45.07
2019-01-13T18:01:38.187Z,41.94
2019-01-13T18:07:33.209Z,38.15
2019-01-13T18:13:28.216Z,41.42
2019-01-13T18:19:23.191Z,43.09
2019-01-13T18:25:18.207Z,43.82
2019-01-13T18:31:13.233Z,50.37
2019-01-13T18:37:08.189Z,17.56
2019-01-13T18:43:03.220Z,46.11
2019-01-13T18:48:58.215Z,44.14
2019-01-13T18:54:53.212Z,36.69
2019-01-13T19:00:48.227Z,36.09
2019-01-13T19:06:43.202Z,49.82
2019-01-13T19:12:38.210Z,53.08
2019-01-13T19:18:33.206Z,67.52
2019-01-13T19:24:28.233Z,105.06
2019-01-13T19:30:23.218Z,97.21
2019-01-13T19:36:18.235Z,100.08
2019-01-13T19:42:13.235Z,98
2019-01-13T19:48:08.228Z,78.97
2019-01-13T19:54:03.222Z,78.32
2019-01-13T19:59:58.268Z,67.85
2019-01-13T20:05:53.261Z,62.46
2019-01-13T20:11:48.255Z,50.38
2019-01-13T20:17:43.257Z,47.73
2019-01-13T20:23:38.235Z,45.59
2019-01-13T20:29:33.266Z,40.9
2019-01-13T20:35:28.259Z,42.8
2019-01-13T20:41:23.290Z,37.11
2019-01-13T20:47:18.276Z,54.91
2019-01-13T20:53:13.259Z,62.32
2019-01-13T20:59:08.282Z,63.41
2019-01-13T21:05:03.276Z,63.98
2019-01-13T21:10:58.321Z,57.63
2019-01-13T21:16:53.289Z,61.05
2019-01-13T21:22:48.303Z,66.47
2019-01-13T21:28:43.292Z,68.19
2019-01-13T21:34:38.284Z,64.71
2019-01-13T21:40:33.343Z,65.51
2019-01-13T21:46:28.299Z,66.63
2019-01-13T21:52:23.294Z,71.23
2019-01-13T21:58:18.314Z,64.61
2019-01-13T22:04:13.315Z,63.22
2019-01-13T22:10:08.310Z,77.4
2019-01-13T22:16:03.321Z,75.76
2019-01-13T22:21:58.364Z,64.8
2019-01-13T22:27:53.325Z,70.99
2019-01-13T22:33:48.316Z,67.29
2019-01-13T22:39:43.314Z,86.01
2019-01-13T22:45:38.382Z,85.77
2019-01-13T22:51:33.316Z,80.1
2019-01-13T22:57:28.333Z,76.6
2019-01-13T23:03:23.308Z,83
2019-01-13T23:09:18.341Z,80.32
2019-01-13T23:15:13.352Z,82.31
2019-01-13T23:21:08.352Z,84.49
2019-01-13T23:27:03.334Z,75.25
2019-01-13T23:32:58.343Z,77.78
2019-01-13T23:38:53.339Z,81.59
2019-01-13T23:44:48.355Z,73.77
2019-01-13T23:50:43.334Z,62.37
2019-01-13T23:56:38.364Z,43.1
